createdAt,value
2023-01-11T00:03:27.464Z,22.60
2023-01-11T00:08:22.132Z,19.40
2023-01-11T00:13:15.427Z,19.70
2023-01-11T00:18:09.050Z,21.30
2023-01-11T00:23:01.824Z,19.30
2023-01-11T00:27:55.647Z,20.30
2023-01-11T00:32:48.391Z,21.40
2023-01-11T00:37:41.739Z,18.90
2023-01-11T00:42:52.320Z,18.90
2023-01-11T00:48:01.853Z,19.40
2023-01-11T00:52:54.634Z,16.80
2023-01-11T00:57:47.435Z,18.30
2023-01-11T01:02:40.312Z,19.40
2023-01-11T01:07:33.111Z,16.40
2023-01-11T01:12:39.846Z,15.40
2023-01-11T01:17:32.709Z,19.20
2023-01-11T01:22:25.498Z,20.40
2023-01-11T01:27:20.067Z,16.40
2023-01-11T01:32:13.325Z,21.00
2023-01-11T01:37:08.450Z,22.20
2023-01-11T01:42:01.378Z,22.30
2023-01-11T01:46:54.166Z,18.90
2023-01-11T01:51:58.766Z,20.90
2023-01-11T01:56:55.827Z,22.90
2023-01-11T02:01:50.716Z,24.20
2023-01-11T02:06:44.399Z,24.90
2023-01-11T02:11:43.343Z,22.80
2023-01-11T02:16:36.428Z,23.70
2023-01-11T02:21:41.533Z,23.50
2023-01-11T02:27:19.487Z,25.40
2023-01-11T02:32:22.550Z,24.40
2023-01-11T02:37:38.535Z,24.20
2023-01-11T02:43:08.814Z,19.00
2023-01-11T02:48:20.179Z,23.60
2023-01-11T02:53:25.058Z,23.00
2023-01-11T02:58:21.127Z,22.60
2023-01-11T03:03:22.002Z,24.20
2023-01-11T03:08:40.678Z,23.90
2023-01-11T03:14:05.259Z,24.20
2023-01-11T03:19:01.031Z,24.00
2023-01-11T03:24:21.422Z,22.00
2023-01-11T03:29:26.855Z,24.70
2023-01-11T03:34:58.266Z,23.60
2023-01-11T03:40:04.233Z,21.10
2023-01-11T03:44:59.258Z,22.00
2023-01-11T03:50:08.859Z,21.00
2023-01-11T03:55:05.540Z,20.20
2023-01-11T03:59:58.631Z,22.30
2023-01-11T04:04:51.699Z,21.80
2023-01-11T04:09:44.420Z,19.90
2023-01-11T04:14:37.445Z,22.60
2023-01-11T04:19:30.360Z,19.00
2023-01-11T04:24:23.213Z,20.80
2023-01-11T04:29:15.954Z,19.70
2023-01-11T04:34:08.766Z,21.70
2023-01-11T04:39:02.031Z,17.20
2023-01-11T04:43:56.881Z,19.70
2023-01-11T04:48:49.651Z,19.00
2023-01-11T04:53:42.406Z,17.70
2023-01-11T04:58:38.309Z,18.00
2023-01-11T05:03:32.360Z,17.20
2023-01-11T05:08:27.238Z,17.60
2023-01-11T05:13:20.124Z,17.80
2023-01-11T05:18:12.955Z,17.40
2023-01-11T05:23:05.993Z,18.10
2023-01-11T05:27:58.767Z,19.00
2023-01-11T05:32:51.895Z,18.00
2023-01-11T05:37:44.706Z,18.20
2023-01-11T05:42:37.556Z,15.10
2023-01-11T05:47:30.370Z,14.60
2023-01-11T05:52:23.155Z,15.80
2023-01-11T05:57:15.958Z,16.70
2023-01-11T06:02:08.881Z,17.10
2023-01-11T06:07:01.776Z,16.80
2023-01-11T06:11:54.625Z,15.10
2023-01-11T06:16:47.525Z,14.50
2023-01-11T06:21:40.579Z,12.30
2023-01-11T06:26:34.507Z,13.10
2023-01-11T06:31:27.583Z,14.20
2023-01-11T06:36:20.439Z,12.90
2023-01-11T06:41:14.077Z,11.50
2023-01-11T06:46:10.821Z,12.20
2023-01-11T06:51:03.747Z,12.20
2023-01-11T06:55:58.784Z,13.30
2023-01-11T07:00:53.349Z,12.10
2023-01-11T07:05:46.322Z,12.40
2023-01-11T07:10:39.779Z,13.20
2023-01-11T07:15:32.712Z,14.00
2023-01-11T07:20:26.657Z,14.00
2023-01-11T07:25:20.117Z,13.50
2023-01-11T07:30:13.467Z,14.10
2023-01-11T07:35:06.740Z,12.80
2023-01-11T07:39:59.848Z,14.30
2023-01-11T07:44:52.635Z,12.50
2023-01-11T07:49:45.467Z,10.10
2023-01-11T07:54:38.257Z,10.20
2023-01-11T07:59:31.621Z,9.40
2023-01-11T08:04:24.438Z,9.70
2023-01-11T08:09:17.244Z,9.90
2023-01-11T08:14:29.530Z,8.50
2023-01-11T08:19:22.354Z,8.50
2023-01-11T08:24:15.318Z,8.10
2023-01-11T08:29:08.118Z,8.20
2023-01-11T08:34:00.904Z,9.90
2023-01-11T08:39:00.201Z,10.30
2023-01-11T08:43:53.380Z,8.80
2023-01-11T08:48:47.904Z,8.60
2023-01-11T08:53:43.104Z,6.70
2023-01-11T08:58:36.836Z,7.60
2023-01-11T09:03:34.531Z,10.80
2023-01-11T09:08:29.955Z,9.30
2023-01-11T09:13:23.051Z,9.30
2023-01-11T09:18:30.909Z,8.70
2023-01-11T09:28:21.441Z,7.80
2023-01-11T09:33:17.179Z,6.40
2023-01-11T09:38:10.079Z,7.30
2023-01-11T09:43:07.413Z,7.50
2023-01-11T09:48:12.893Z,7.40
2023-01-11T09:53:09.833Z,6.40
2023-01-11T09:58:06.892Z,7.60
2023-01-11T10:03:33.135Z,5.40
2023-01-11T10:18:33.080Z,6.10
2023-01-11T10:20:17.738Z,7.40
2023-01-11T10:25:26.064Z,7.40
2023-01-11T10:30:41.937Z,8.70
2023-01-11T10:35:59.194Z,8.20
2023-01-11T10:41:06.797Z,6.90
2023-01-11T10:51:42.573Z,8.70
2023-01-11T10:57:05.219Z,9.30
2023-01-11T11:02:01.760Z,8.60
2023-01-11T11:07:15.437Z,9.00
2023-01-11T11:12:38.870Z,9.80
2023-01-11T11:17:38.459Z,10.10
2023-01-11T11:22:31.220Z,9.60
2023-01-11T11:27:36.756Z,10.00
2023-01-11T11:32:37.214Z,11.20
2023-01-11T11:37:36.706Z,9.60
2023-01-11T11:42:31.519Z,8.40
2023-01-11T11:47:24.305Z,9.00
2023-01-11T11:52:19.013Z,9.90
2023-01-11T11:57:18.569Z,11.10
2023-01-11T12:02:29.791Z,8.90
2023-01-11T12:07:29.985Z,9.80
2023-01-11T12:12:26.943Z,9.70
2023-01-11T12:17:27.073Z,11.60
2023-01-11T12:22:22.928Z,11.00
2023-01-11T12:27:34.387Z,10.60
2023-01-11T12:32:58.933Z,11.00
2023-01-11T12:38:01.291Z,11.20
2023-01-11T12:43:49.283Z,10.80
2023-01-11T12:48:49.919Z,10.90
2023-01-11T12:54:01.202Z,11.70
2023-01-11T12:59:09.555Z,10.30
2023-01-11T13:04:17.181Z,10.70
2023-01-11T13:09:31.553Z,11.50
2023-01-11T13:14:27.102Z,10.70
2023-01-11T13:19:32.980Z,11.50
2023-01-11T13:24:30.513Z,10.30
2023-01-11T13:34:47.800Z,12.20
2023-01-11T13:39:49.211Z,13.60
2023-01-11T13:44:51.149Z,14.30
2023-01-11T13:50:10.862Z,14.30
2023-01-11T13:55:20.919Z,15.90
2023-01-11T14:00:28.019Z,15.10
2023-01-11T14:05:24.367Z,16.80
2023-01-11T14:10:29.781Z,16.70
2023-01-11T14:15:46.087Z,18.20
2023-01-11T14:21:22.904Z,16.30
2023-01-11T14:26:46.313Z,17.00
2023-01-11T14:32:12.961Z,13.30
2023-01-11T14:37:43.999Z,15.80
2023-01-11T14:42:52.221Z,16.40
2023-01-11T14:48:06.841Z,13.90
2023-01-11T14:53:02.461Z,17.90
2023-01-11T14:58:01.955Z,17.80
2023-01-11T15:03:08.452Z,18.00
2023-01-11T15:08:17.109Z,18.80
2023-01-11T15:13:16.792Z,19.10
2023-01-11T15:18:24.403Z,18.90
2023-01-11T15:23:19.113Z,18.20
2023-01-11T15:28:49.509Z,18.30
2023-01-11T15:33:51.178Z,15.80
2023-01-11T15:38:51.009Z,13.60
2023-01-11T15:44:08.753Z,13.80
2023-01-11T15:49:07.512Z,13.80
2023-01-11T15:54:21.501Z,15.80
2023-01-11T16:00:11.460Z,15.10
2023-01-11T16:05:16.967Z,14.30
2023-01-11T16:10:28.711Z,14.10
2023-01-11T16:15:49.479Z,14.90
2023-01-11T16:20:47.493Z,15.30
2023-01-11T16:25:43.533Z,17.30
2023-01-11T16:30:36.722Z,17.80
2023-01-11T16:35:30.007Z,16.80
2023-01-11T16:40:37.284Z,16.20
2023-01-11T16:45:54.437Z,16.80
2023-01-11T16:51:01.952Z,18.70
2023-01-11T16:56:03.251Z,18.60
2023-01-11T17:01:09.890Z,18.50
2023-01-11T17:06:08.853Z,18.00
2023-01-11T17:17:01.564Z,20.00
2023-01-11T17:22:08.620Z,19.90
2023-01-11T17:27:03.378Z,21.90
2023-01-11T17:31:58.629Z,21.50
2023-01-11T17:36:52.033Z,20.50
2023-01-11T17:42:02.440Z,20.70
2023-01-11T17:46:55.253Z,19.40
2023-01-11T17:51:48.237Z,18.10
2023-01-11T17:56:42.384Z,16.40
2023-01-11T18:01:35.279Z,16.10
2023-01-11T18:06:31.613Z,15.60
2023-01-11T18:11:28.151Z,19.00
2023-01-11T18:16:22.588Z,17.40
2023-01-11T18:21:27.666Z,16.80
2023-01-11T18:26:40.889Z,18.50
2023-01-11T18:31:34.067Z,16.90
2023-01-11T18:36:28.604Z,18.10
2023-01-11T18:41:35.358Z,15.50
2023-01-11T18:46:28.867Z,18.50
2023-01-11T18:51:37.008Z,14.90
2023-01-11T18:56:29.894Z,17.00
2023-01-11T19:01:22.842Z,16.30
2023-01-11T19:06:19.393Z,15.60
2023-01-11T19:11:14.105Z,18.00
2023-01-11T19:16:07.945Z,15.70
2023-01-11T19:21:06.928Z,15.50
2023-01-11T19:26:01.416Z,17.80
2023-01-11T19:30:54.351Z,19.10
2023-01-11T19:35:49.698Z,16.80
2023-01-11T19:40:42.504Z,18.30
2023-01-11T19:45:35.472Z,17.60
2023-01-11T19:50:28.261Z,18.90
2023-01-11T19:55:21.158Z,19.10
2023-01-11T20:00:15.432Z,16.30
2023-01-11T20:05:08.880Z,20.60
2023-01-11T20:10:01.905Z,17.70
2023-01-11T20:14:57.711Z,19.80
2023-01-11T20:19:54.613Z,22.20
2023-01-11T20:24:48.550Z,22.00
2023-01-11T20:29:43.863Z,18.90
2023-01-11T20:34:37.359Z,21.60
2023-01-11T20:39:30.792Z,19.00
2023-01-11T20:44:27.523Z,20.00
2023-01-11T20:49:23.168Z,22.70
2023-01-11T20:54:40.286Z,19.80
2023-01-11T20:59:36.615Z,17.90
2023-01-11T21:04:29.511Z,18.50
2023-01-11T21:09:22.557Z,16.50
2023-01-11T21:14:15.525Z,18.60
2023-01-11T21:19:09.088Z,21.40
2023-01-11T21:24:04.521Z,19.70
2023-01-11T21:29:02.684Z,20.10
2023-01-11T21:33:55.807Z,18.10
2023-01-11T21:38:49.274Z,19.80
2023-01-11T21:43:43.572Z,20.20
2023-01-11T21:48:37.805Z,20.00
2023-01-11T21:53:32.415Z,19.50
2023-01-11T21:58:25.255Z,20.10
2023-01-11T22:03:18.379Z,18.60
2023-01-11T22:08:12.190Z,19.30
2023-01-11T22:13:05.302Z,17.90
2023-01-11T22:17:58.192Z,20.30
2023-01-11T22:22:51.044Z,17.60
2023-01-11T22:27:43.988Z,18.50
2023-01-11T22:32:36.911Z,21.20
2023-01-11T22:37:29.752Z,18.20
2023-01-11T22:42:22.573Z,19.20
2023-01-11T22:47:15.443Z,18.30
2023-01-11T22:52:08.363Z,17.20
2023-01-11T22:57:01.283Z,20.50
2023-01-11T23:01:54.286Z,14.90
2023-01-11T23:06:47.249Z,17.70
2023-01-11T23:11:58.771Z,17.30
2023-01-11T23:16:52.113Z,16.90
2023-01-11T23:21:46.796Z,17.10
2023-01-11T23:26:40.824Z,15.70
2023-01-11T23:31:33.889Z,17.30
2023-01-11T23:36:32.396Z,16.20
2023-01-11T23:41:43.986Z,15.60
2023-01-11T23:46:55.358Z,18.70
2023-01-11T23:51:48.418Z,17.10
2023-01-11T23:56:41.811Z,17.90
